Time;durP1;ratioP1;P1;durP2;ratioP2;P2;SDS_P1;SDS_P2;PMS_P1;PMS_P2;Temp;Humidity;BMP_temperature;BMP_pressure;BME280_temperature;BME280_humidity;BME280_pressure;Samples;Min_cycle;Max_cycle;Signal;HPM_P1;HPM_P2
2021/06/20 00:01:01;;;;;;;10.55;6.47;;;20.50;71.20;;;;;;5096069;28;20048;-72
2021/06/20 00:03:27;;;;;;;8.57;6.72;;;20.50;71.20;;;;;;5095800;28;20071;-73
2021/06/20 00:05:56;;;;;;;10.05;7.30;;;20.50;71.20;;;;;;5096737;28;20083;-73
2021/06/20 00:08:22;;;;;;;9.38;6.80;;;20.50;71.20;;;;;;5096622;28;20040;-72
2021/06/20 00:10:50;;;;;;;8.13;7.00;;;20.50;71.30;;;;;;5096758;28;20047;-73
2021/06/20 00:13:17;;;;;;;9.95;6.82;;;20.40;71.20;;;;;;5096887;28;20101;-72
2021/06/20 00:15:44;;;;;;;9.20;6.88;;;20.50;71.40;;;;;;5097135;28;20481;-72
2021/06/20 00:18:10;;;;;;;12.23;7.28;;;20.40;71.30;;;;;;5096502;28;20072;-73
2021/06/20 00:20:42;;;;;;;9.93;6.35;;;20.50;71.40;;;;;;5095826;28;20396;-73
2021/06/20 00:23:08;;;;;;;10.88;6.63;;;20.50;71.40;;;;;;5096563;28;20362;-72
2021/06/20 00:25:35;;;;;;;12.38;7.35;;;20.40;71.40;;;;;;5106284;28;20044;-71
2021/06/20 00:28:01;;;;;;;9.98;6.82;;;20.50;71.50;;;;;;5109552;28;20112;-72
2021/06/20 00:30:30;;;;;;;10.05;6.55;;;20.50;71.40;;;;;;5095760;28;20044;-72
2021/06/20 00:32:56;;;;;;;10.35;6.05;;;20.50;71.40;;;;;;5095854;28;20412;-72
2021/06/20 00:35:22;;;;;;;7.97;5.80;;;20.60;71.30;;;;;;5096198;28;20047;-72
2021/06/20 00:37:49;;;;;;;9.05;5.70;;;20.60;71.20;;;;;;5096212;28;20051;-73
2021/06/20 00:40:16;;;;;;;8.25;6.20;;;20.60;71.10;;;;;;5096483;28;20048;-73
2021/06/20 00:42:42;;;;;;;8.68;5.60;;;20.60;71.00;;;;;;5096183;28;20373;-71
2021/06/20 00:45:09;;;;;;;9.60;6.10;;;20.70;70.90;;;;;;5096180;28;20525;-73
2021/06/20 00:47:35;;;;;;;8.60;5.85;;;20.70;70.90;;;;;;5095978;28;20040;-72
2021/06/20 00:50:03;;;;;;;8.70;6.13;;;20.70;70.80;;;;;;5096220;28;20040;-72
2021/06/20 00:52:29;;;;;;;6.80;5.15;;;20.80;70.70;;;;;;5095731;28;20044;-72
2021/06/20 00:54:58;;;;;;;6.40;5.43;;;20.70;70.70;;;;;;5096422;28;20123;-73
2021/06/20 00:57:24;;;;;;;9.13;6.13;;;20.80;70.60;;;;;;5095777;28;20152;-73
2021/06/20 00:59:51;;;;;;;9.00;6.65;;;20.80;70.60;;;;;;5096180;28;20379;-72
2021/06/20 01:02:19;;;;;;;7.13;5.78;;;20.80;70.60;;;;;;5096032;28;20044;-72
2021/06/20 01:04:49;;;;;;;7.25;5.47;;;20.80;70.50;;;;;;5095973;28;20040;-72
2021/06/20 01:07:20;;;;;;;8.10;5.90;;;20.80;70.50;;;;;;5095706;28;20127;-72
2021/06/20 01:09:47;;;;;;;6.22;5.55;;;20.80;70.40;;;;;;5095901;28;20056;-72
2021/06/20 01:12:15;;;;;;;6.65;5.60;;;20.90;70.50;;;;;;5095689;28;20052;-72
2021/06/20 01:14:42;;;;;;;6.05;4.88;;;20.90;70.40;;;;;;5095656;28;20044;-72
2021/06/20 01:17:08;;;;;;;7.13;5.25;;;20.90;70.40;;;;;;5095350;28;20047;-72
2021/06/20 01:19:35;;;;;;;6.82;5.22;;;20.90;70.40;;;;;;5095669;28;20085;-72
2021/06/20 01:22:28;;;;;;;7.35;5.70;;;20.90;70.30;;;;;;5095774;28;20055;-72
2021/06/20 01:25:14;;;;;;;6.30;5.68;;;20.90;70.30;;;;;;5096157;28;20052;-72
2021/06/20 01:27:43;;;;;;;7.18;6.00;;;20.90;70.30;;;;;;5095281;28;20093;-72
2021/06/20 01:30:13;;;;;;;6.28;5.57;;;20.90;70.20;;;;;;5096022;28;20130;-72
2021/06/20 01:32:38;;;;;;;7.63;5.72;;;20.90;70.30;;;;;;5094457;28;20040;-72
2021/06/20 01:35:04;;;;;;;6.55;5.32;;;20.90;70.20;;;;;;5095505;28;20044;-73
2021/06/20 01:37:30;;;;;;;7.97;5.22;;;20.90;70.20;;;;;;5095182;28;20052;-72
2021/06/20 01:39:57;;;;;;;6.68;5.35;;;20.90;70.30;;;;;;5095403;28;20054;-73
2021/06/20 01:42:23;;;;;;;7.93;5.22;;;20.90;70.20;;;;;;5095026;28;20048;-73
2021/06/20 01:44:52;;;;;;;7.45;5.32;;;20.90;70.20;;;;;;5095078;28;20048;-72
2021/06/20 01:47:18;;;;;;;7.03;5.35;;;21.00;70.20;;;;;;5095267;28;20063;-72
2021/06/20 01:49:44;;;;;;;6.50;5.18;;;20.90;70.10;;;;;;5095815;28;20116;-72
2021/06/20 01:52:11;;;;;;;5.80;4.70;;;21.00;70.20;;;;;;5095383;28;20040;-72
2021/06/20 01:54:49;;;;;;;5.55;4.68;;;21.00;70.20;;;;;;5094896;28;20044;-72
2021/06/20 01:57:25;;;;;;;5.70;4.97;;;21.00;70.20;;;;;;5094937;28;20344;-73
2021/06/20 01:59:51;;;;;;;6.22;4.85;;;21.00;70.20;;;;;;5095768;28;20044;-73
2021/06/20 02:02:18;;;;;;;6.10;4.57;;;20.90;70.10;;;;;;5095150;28;20055;-73
2021/06/20 02:04:44;;;;;;;6.53;4.63;;;21.00;70.20;;;;;;5094600;28;20435;-72
2021/06/20 02:07:10;;;;;;;5.35;4.20;;;20.90;70.10;;;;;;5094808;28;20043;-72
2021/06/20 02:09:37;;;;;;;8.20;4.80;;;21.00;70.20;;;;;;5095265;28;20350;-73
2021/06/20 02:12:07;;;;;;;5.43;4.35;;;20.90;70.10;;;;;;5095028;28;20040;-73
2021/06/20 02:14:34;;;;;;;6.88;5.43;;;20.90;70.10;;;;;;5095163;28;20044;-73
2021/06/20 02:17:02;;;;;;;5.65;4.47;;;21.00;70.10;;;;;;5094756;28;20047;-73
2021/06/20 02:19:28;;;;;;;6.10;4.50;;;20.90;70.00;;;;;;5094905;28;20366;-73
2021/06/20 02:21:54;;;;;;;6.25;4.55;;;20.90;70.00;;;;;;5094716;28;20044;-72
2021/06/20 02:24:20;;;;;;;6.13;4.20;;;21.00;70.10;;;;;;5095027;28;20040;-72
2021/06/20 02:26:45;;;;;;;5.43;4.25;;;21.00;70.10;;;;;;5095022;28;20066;-72
2021/06/20 02:29:11;;;;;;;5.32;4.25;;;21.00;70.10;;;;;;5095037;28;20051;-72
2021/06/20 02:31:37;;;;;;;4.80;4.30;;;21.00;70.10;;;;;;5094869;28;20051;-73
2021/06/20 02:34:03;;;;;;;5.63;4.32;;;20.90;70.10;;;;;;5095051;28;20044;-72
2021/06/20 02:36:30;;;;;;;5.22;4.18;;;21.00;70.10;;;;;;5094784;28;20440;-73
2021/06/20 02:38:56;;;;;;;4.93;4.43;;;20.90;70.00;;;;;;5094369;28;20044;-73
2021/06/20 02:41:22;;;;;;;6.53;4.45;;;20.90;70.00;;;;;;5094867;28;20473;-74
2021/06/20 02:43:48;;;;;;;5.03;4.30;;;20.90;70.00;;;;;;5097840;28;20425;-72
2021/06/20 02:46:14;;;;;;;5.00;3.80;;;20.90;70.00;;;;;;5098338;28;20040;-73
2021/06/20 02:48:39;;;;;;;5.13;4.35;;;20.90;70.00;;;;;;5098132;28;20044;-72
2021/06/20 02:51:05;;;;;;;4.20;3.67;;;21.00;70.10;;;;;;5098468;28;20055;-72
2021/06/20 02:53:31;;;;;;;4.60;3.90;;;21.00;70.10;;;;;;5098198;28;20413;-73
2021/06/20 02:55:57;;;;;;;5.63;3.78;;;20.90;70.00;;;;;;5098100;28;20036;-73
2021/06/20 02:58:23;;;;;;;5.30;3.65;;;20.90;70.00;;;;;;5097895;28;20080;-73
2021/06/20 03:00:49;;;;;;;4.40;3.70;;;21.00;70.10;;;;;;5098182;28;20443;-73
2021/06/20 03:03:15;;;;;;;4.40;3.40;;;21.00;70.10;;;;;;5097875;28;20040;-73
2021/06/20 03:05:40;;;;;;;5.50;3.80;;;20.90;70.00;;;;;;5098221;28;20351;-73
2021/06/20 03:08:06;;;;;;;4.38;3.90;;;20.90;70.10;;;;;;5097713;28;20395;-72
2021/06/20 03:10:32;;;;;;;4.53;3.75;;;20.90;70.10;;;;;;5098010;28;20130;-73
2021/06/20 03:12:58;;;;;;;5.40;3.70;;;20.90;70.00;;;;;;5097827;28;20123;-72
2021/06/20 03:15:24;;;;;;;3.72;3.33;;;20.90;70.00;;;;;;5097801;28;20480;-74
2021/06/20 03:17:49;;;;;;;5.07;3.72;;;21.00;70.10;;;;;;5097591;28;20097;-73
2021/06/20 03:20:15;;;;;;;4.50;3.42;;;21.00;70.10;;;;;;5097408;28;20426;-73
2021/06/20 03:22:41;;;;;;;4.20;3.45;;;21.00;70.20;;;;;;5097895;28;20040;-73
2021/06/20 03:25:08;;;;;;;4.25;3.83;;;21.00;70.20;;;;;;5097655;28;20040;-73
2021/06/20 03:27:34;;;;;;;3.83;3.20;;;20.90;70.10;;;;;;5097526;28;20408;-72
2021/06/20 03:29:59;;;;;;;5.03;3.95;;;20.90;70.10;;;;;;5097620;28;20064;-73
2021/06/20 03:32:25;;;;;;;4.18;3.65;;;20.90;70.10;;;;;;5097167;28;20047;-73
2021/06/20 03:34:52;;;;;;;3.67;2.90;;;21.00;70.20;;;;;;5097389;28;20044;-73
2021/06/20 03:37:18;;;;;;;3.97;3.42;;;21.00;70.20;;;;;;5096837;28;20048;-73
2021/06/20 03:39:44;;;;;;;4.43;3.10;;;20.90;70.10;;;;;;5097393;28;20367;-72
2021/06/20 03:42:10;;;;;;;3.50;3.20;;;20.90;70.10;;;;;;5097438;28;20051;-72
2021/06/20 03:44:36;;;;;;;4.70;3.63;;;20.90;70.10;;;;;;5097188;28;20055;-72
2021/06/20 03:47:02;;;;;;;3.78;3.22;;;20.90;70.10;;;;;;5096955;28;20166;-72
2021/06/20 03:49:28;;;;;;;4.45;3.30;;;20.90;70.10;;;;;;5097360;28;20443;-72
2021/06/20 03:51:54;;;;;;;4.57;3.10;;;20.90;70.10;;;;;;5097038;28;20055;-73
2021/06/20 03:54:22;;;;;;;5.07;3.50;;;20.90;70.20;;;;;;5096391;28;20351;-73
2021/06/20 03:56:48;;;;;;;5.10;3.45;;;21.00;70.20;;;;;;5096894;28;20032;-73
2021/06/20 03:59:14;;;;;;;4.47;3.30;;;20.90;70.20;;;;;;5096486;28;20121;-72
2021/06/20 04:01:40;;;;;;;3.20;2.85;;;20.90;70.20;;;;;;5096477;28;20082;-73
2021/06/20 04:04:06;;;;;;;3.70;3.30;;;20.90;70.20;;;;;;5096757;28;20082;-72
2021/06/20 04:06:32;;;;;;;5.95;3.67;;;21.00;70.20;;;;;;5096785;28;20450;-73
2021/06/20 04:08:58;;;;;;;4.30;3.50;;;21.00;70.20;;;;;;5096717;28;20051;-73
2021/06/20 04:11:26;;;;;;;4.18;3.53;;;20.90;70.20;;;;;;5096839;28;20518;-72
2021/06/20 04:13:52;;;;;;;3.92;3.05;;;21.00;70.20;;;;;;5096783;28;20512;-73
2021/06/20 04:16:18;;;;;;;3.30;2.80;;;20.90;70.20;;;;;;5096646;28;20332;-73
2021/06/20 04:18:44;;;;;;;4.93;3.67;;;21.00;70.30;;;;;;5096217;28;20051;-72
2021/06/20 04:21:10;;;;;;;3.63;3.03;;;21.00;70.30;;;;;;5096518;28;20047;-72
2021/06/20 04:23:35;;;;;;;3.83;3.20;;;20.90;70.20;;;;;;5096488;28;20040;-73
2021/06/20 04:26:01;;;;;;;4.32;3.28;;;21.00;70.30;;;;;;5096716;28;20051;-72
2021/06/20 04:28:27;;;;;;;3.50;3.20;;;21.00;70.30;;;;;;5096588;28;20447;-72
2021/06/20 04:30:56;;;;;;;4.13;2.97;;;20.90;70.20;;;;;;5096516;28;20055;-73
2021/06/20 04:33:22;;;;;;;3.90;3.15;;;20.90;70.20;;;;;;5095932;28;20408;-72
2021/06/20 04:35:50;;;;;;;4.07;3.28;;;21.00;70.30;;;;;;5096593;28;20043;-72
2021/06/20 04:38:16;;;;;;;4.80;3.17;;;21.00;70.30;;;;;;5096152;28;20557;-73
2021/06/20 04:40:42;;;;;;;3.45;2.60;;;20.90;70.20;;;;;;5096050;28;20056;-72
2021/06/20 04:43:10;;;;;;;4.38;3.33;;;20.90;70.30;;;;;;5096260;28;20051;-72
2021/06/20 04:45:36;;;;;;;4.25;3.05;;;21.00;70.30;;;;;;5095402;28;20397;-72
2021/06/20 04:48:02;;;;;;;4.13;3.08;;;20.90;70.20;;;;;;5095993;28;20112;-72
2021/06/20 04:50:28;;;;;;;5.63;3.20;;;21.00;70.30;;;;;;5096406;28;20094;-72
2021/06/20 04:52:54;;;;;;;4.68;3.05;;;20.90;70.30;;;;;;5096044;28;20455;-72
2021/06/20 04:55:20;;;;;;;3.28;2.90;;;21.00;70.30;;;;;;5096101;28;20044;-72
2021/06/20 04:57:45;;;;;;;5.10;3.15;;;20.90;70.30;;;;;;5095374;28;20072;-72
2021/06/20 05:00:13;;;;;;;5.10;3.60;;;21.00;70.40;;;;;;5095716;28;20048;-72
2021/06/20 05:02:39;;;;;;;3.97;3.38;;;20.90;70.30;;;;;;5095923;28;20180;-73
2021/06/20 05:05:06;;;;;;;3.80;3.33;;;20.90;70.90;;;;;;5096236;28;20043;-72
2021/06/20 05:07:32;;;;;;;5.35;3.78;;;20.90;71.00;;;;;;5095597;28;20097;-73
2021/06/20 05:09:58;;;;;;;5.50;3.25;;;20.90;70.60;;;;;;5095464;28;20047;-71
2021/06/20 05:12:24;;;;;;;7.70;3.45;;;21.00;70.70;;;;;;5095873;28;20439;-70
2021/06/20 05:14:49;;;;;;;4.68;2.90;;;20.90;70.90;;;;;;5095312;28;20055;-71
2021/06/20 05:17:17;;;;;;;7.47;3.38;;;20.90;71.10;;;;;;5094547;28;20526;-73
2021/06/20 05:19:43;;;;;;;5.95;3.33;;;20.90;71.10;;;;;;5095645;28;20040;-72
2021/06/20 05:22:10;;;;;;;7.32;3.40;;;20.90;71.10;;;;;;5095503;28;20443;-73
2021/06/20 05:24:38;;;;;;;6.80;3.10;;;21.00;71.20;;;;;;5096119;28;20428;-72
2021/06/20 05:27:04;;;;;;;8.68;3.63;;;20.90;71.40;;;;;;5095314;28;20462;-72
2021/06/20 05:29:30;;;;;;;6.88;2.72;;;20.90;72.10;;;;;;5095301;28;20048;-71
2021/06/20 05:31:56;;;;;;;6.03;2.40;;;20.90;72.10;;;;;;5095514;28;20413;-72
2021/06/20 05:34:21;;;;;;;6.65;2.80;;;20.90;72.10;;;;;;5095223;28;20046;-71
2021/06/20 05:36:48;;;;;;;4.88;2.28;;;20.90;72.10;;;;;;5094290;28;20189;-71
2021/06/20 05:39:14;;;;;;;2.88;1.92;;;20.90;72.20;;;;;;5095476;28;20109;-72
2021/06/20 05:41:40;;;;;;;6.85;2.10;;;20.90;72.30;;;;;;5095710;28;20048;-71
2021/06/20 05:44:06;;;;;;;4.25;2.25;;;20.90;72.50;;;;;;5094951;28;20413;-72
2021/06/20 05:46:33;;;;;;;4.30;2.38;;;20.90;72.70;;;;;;5095412;28;20052;-69
2021/06/20 05:48:59;;;;;;;6.03;2.42;;;20.90;72.80;;;;;;5095239;28;20040;-74
2021/06/20 05:51:24;;;;;;;6.43;2.63;;;20.90;72.90;;;;;;5095381;28;20051;-74
2021/06/20 05:53:50;;;;;;;4.88;2.22;;;20.90;73.20;;;;;;5093941;28;20047;-75
2021/06/20 05:56:16;;;;;;;5.82;2.42;;;20.90;73.30;;;;;;5096598;28;20094;-76
2021/06/20 05:58:42;;;;;;;6.82;2.45;;;20.80;73.30;;;;;;5104601;28;20056;-78
2021/06/20 06:01:08;;;;;;;5.65;2.10;;;20.80;73.30;;;;;;5094871;28;20115;-77
2021/06/20 06:03:35;;;;;;;7.70;2.55;;;20.80;73.10;;;;;;5111956;28;20127;-73
2021/06/20 06:06:04;;;;;;;5.85;2.22;;;20.80;73.00;;;;;;5115438;28;20092;-78
2021/06/20 06:08:33;;;;;;;7.50;2.08;;;20.70;72.90;;;;;;5115426;28;20043;-77
2021/06/20 06:10:59;;;;;;;4.60;2.08;;;20.70;72.80;;;;;;5115089;28;20100;-77
2021/06/20 06:13:25;;;;;;;7.57;2.33;;;20.70;72.80;;;;;;5114200;28;20135;-74
2021/06/20 06:15:51;;;;;;;6.85;2.35;;;20.70;73.30;;;;;;5115511;28;20123;-73
2021/06/20 06:18:17;;;;;;;7.13;2.63;;;20.60;73.20;;;;;;5117343;28;20035;-73
2021/06/20 06:20:43;;;;;;;6.90;2.72;;;20.70;72.90;;;;;;5117024;28;20143;-72
2021/06/20 06:23:11;;;;;;;8.75;2.50;;;20.60;73.30;;;;;;5102242;28;20457;-73
2021/06/20 06:25:37;;;;;;;8.60;2.50;;;20.60;72.50;;;;;;5117940;28;20112;-73
2021/06/20 06:28:03;;;;;;;6.30;2.00;;;20.60;72.20;;;;;;5118573;28;20067;-74
2021/06/20 06:30:29;;;;;;;6.60;2.10;;;20.50;72.10;;;;;;5118857;28;20074;-73
2021/06/20 06:32:55;;;;;;;6.47;2.42;;;20.50;72.10;;;;;;5119121;28;20449;-73
2021/06/20 06:35:21;;;;;;;4.20;2.00;;;20.50;72.10;;;;;;5115794;28;20793;-73
2021/06/20 06:37:49;;;;;;;5.00;1.85;;;20.50;72.00;;;;;;5098611;28;20054;-73
2021/06/20 06:40:15;;;;;;;6.85;2.05;;;20.50;72.00;;;;;;5098333;28;20363;-74
2021/06/20 06:42:41;;;;;;;6.45;1.90;;;20.50;72.10;;;;;;5098381;28;20056;-73
2021/06/20 06:45:08;;;;;;;5.05;1.92;;;20.40;72.00;;;;;;5111957;28;20039;-73
2021/06/20 06:47:34;;;;;;;5.90;1.80;;;20.50;72.10;;;;;;5117294;28;20071;-75
2021/06/20 06:50:03;;;;;;;4.82;1.98;;;20.50;72.10;;;;;;5113275;28;20043;-73
2021/06/20 06:52:29;;;;;;;7.80;1.90;;;20.50;72.00;;;;;;5098154;28;20048;-73
2021/06/20 06:54:55;;;;;;;6.70;2.17;;;20.50;72.10;;;;;;5098217;28;20069;-77
2021/06/20 06:57:23;;;;;;;8.98;2.33;;;20.50;72.30;;;;;;5097489;28;20367;-78
2021/06/20 06:59:51;;;;;;;6.00;2.10;;;20.50;72.20;;;;;;5097633;28;20056;-74
2021/06/20 07:02:17;;;;;;;7.65;2.10;;;20.60;72.20;;;;;;5097534;28;20124;-74
2021/06/20 07:04:44;;;;;;;7.32;2.33;;;20.60;72.30;;;;;;5098093;28;20051;-74
2021/06/20 07:07:11;;;;;;;6.78;2.40;;;20.60;72.30;;;;;;5108950;28;20054;-74
2021/06/20 07:09:37;;;;;;;10.02;2.47;;;20.60;72.90;;;;;;5118116;28;20048;-73
2021/06/20 07:12:03;;;;;;;10.32;2.75;;;20.60;72.60;;;;;;5118312;28;20047;-72
2021/06/20 07:14:33;;;;;;;10.05;2.90;;;20.70;72.50;;;;;;5117854;28;20127;-71
2021/06/20 07:17:01;;;;;;;10.63;2.88;;;20.70;72.50;;;;;;5117605;28;20067;-72
2021/06/20 07:19:27;;;;;;;9.45;2.60;;;20.70;72.70;;;;;;5117981;28;20090;-72
2021/06/20 07:21:53;;;;;;;21.23;3.17;;;20.70;72.50;;;;;;5117569;28;20063;-72
2021/06/20 07:24:19;;;;;;;6.93;2.50;;;20.70;72.40;;;;;;5098876;28;20123;-71
2021/06/20 07:26:45;;;;;;;11.05;2.85;;;20.70;72.30;;;;;;5096367;28;20505;-74
2021/06/20 07:29:11;;;;;;;10.30;2.55;;;20.70;72.30;;;;;;5096501;28;20048;-72
2021/06/20 07:31:37;;;;;;;8.40;2.40;;;20.70;72.40;;;;;;5105851;28;20526;-72
2021/06/20 07:34:02;;;;;;;12.57;2.88;;;20.70;72.30;;;;;;5117740;28;20119;-73
2021/06/20 07:36:28;;;;;;;27.30;3.67;;;20.70;72.60;;;;;;5117514;28;20435;-74
2021/06/20 07:38:54;;;;;;;18.55;3.15;;;20.80;72.80;;;;;;5117487;28;20126;-71
2021/06/20 07:41:20;;;;;;;18.77;2.75;;;20.80;73.10;;;;;;5111478;28;20040;-73
2021/06/20 07:43:46;;;;;;;17.92;2.45;;;20.80;73.10;;;;;;5096963;28;20051;-74
2021/06/20 07:46:12;;;;;;;16.73;2.80;;;20.80;73.00;;;;;;5096769;28;20360;-74
2021/06/20 07:48:38;;;;;;;13.77;3.30;;;20.90;73.30;;;;;;5096962;28;20055;-75
2021/06/20 07:51:04;;;;;;;13.68;2.72;;;20.90;73.30;;;;;;5097427;28;20059;-73
2021/06/20 07:53:29;;;;;;;20.27;3.00;;;20.90;73.40;;;;;;5096991;28;20040;-75
2021/06/20 07:55:55;;;;;;;11.85;2.35;;;20.90;73.40;;;;;;5096803;28;20055;-76
2021/06/20 07:58:21;;;;;;;9.65;2.50;;;21.00;73.40;;;;;;5096537;28;20157;-74
2021/06/20 08:00:47;;;;;;;15.25;2.63;;;21.00;73.20;;;;;;5097310;28;20054;-74
2021/06/20 08:03:14;;;;;;;11.43;2.90;;;21.00;73.10;;;;;;5097799;28;20127;-74
2021/06/20 08:05:39;;;;;;;10.82;2.28;;;21.00;73.00;;;;;;5112327;28;20122;-74
2021/06/20 08:08:05;;;;;;;12.68;2.67;;;21.00;73.00;;;;;;5116904;28;20043;-73
2021/06/20 08:10:31;;;;;;;10.63;1.90;;;21.00;73.00;;;;;;5116998;28;20412;-76
2021/06/20 08:12:57;;;;;;;7.80;2.20;;;21.10;73.00;;;;;;5116973;28;20069;-74
2021/06/20 08:15:23;;;;;;;5.70;1.65;;;21.10;73.00;;;;;;5117319;28;20040;-76
2021/06/20 08:17:49;;;;;;;7.78;1.90;;;21.10;72.90;;;;;;5116721;28;20044;-75
2021/06/20 08:20:17;;;;;;;8.82;1.63;;;21.10;72.90;;;;;;5116506;28;20050;-73
2021/06/20 08:22:43;;;;;;;8.13;1.73;;;21.20;73.00;;;;;;5103088;28;20336;-74
2021/06/20 08:25:10;;;;;;;6.50;1.67;;;21.20;73.00;;;;;;5096250;28;20047;-74
2021/06/20 08:27:37;;;;;;;8.43;2.60;;;21.20;72.90;;;;;;5096639;28;20111;-74
2021/06/20 08:30:05;;;;;;;5.95;1.70;;;21.20;72.90;;;;;;5097167;28;20071;-73
2021/06/20 08:32:31;;;;;;;8.15;2.10;;;21.20;73.00;;;;;;5096614;28;20052;-73
2021/06/20 08:35:00;;;;;;;7.80;1.67;;;21.30;73.00;;;;;;5096604;28;20408;-75
2021/06/20 08:37:27;;;;;;;12.05;2.03;;;21.30;73.00;;;;;;5095949;28;20454;-74
2021/06/20 08:39:53;;;;;;;5.38;1.38;;;21.30;73.00;;;;;;5095166;28;20047;-75
2021/06/20 08:42:19;;;;;;;6.53;2.58;;;21.30;73.00;;;;;;5096518;28;20048;-74
2021/06/20 08:44:45;;;;;;;6.65;2.40;;;21.30;73.00;;;;;;5109377;28;20051;-75
2021/06/20 08:47:13;;;;;;;5.55;1.40;;;21.30;72.90;;;;;;5115931;28;20516;-73
2021/06/20 08:49:39;;;;;;;9.15;1.50;;;21.40;73.00;;;;;;5115944;28;20421;-75
2021/06/20 08:52:06;;;;;;;4.28;1.38;;;21.40;73.00;;;;;;5116113;28;20047;-74
2021/06/20 08:54:32;;;;;;;4.07;1.42;;;21.40;73.00;;;;;;5116373;28;20047;-76
2021/06/20 08:57:00;;;;;;;4.90;1.35;;;21.40;73.00;;;;;;5116352;28;20050;-75
2021/06/20 08:59:26;;;;;;;4.65;1.67;;;21.40;73.00;;;;;;5115625;28;20063;-74
2021/06/20 09:01:53;;;;;;;8.38;1.55;;;21.40;72.90;;;;;;5116433;28;20071;-74
2021/06/20 09:04:34;;;;;;;5.38;1.60;;;21.40;72.90;;;;;;5116024;28;20447;-75
2021/06/20 09:07:02;;;;;;;5.22;1.45;;;21.40;72.90;;;;;;5101036;28;20117;-74
2021/06/20 09:09:36;;;;;;;3.30;0.82;;;21.40;72.90;;;;;;5095833;28;20439;-74
2021/06/20 09:12:13;;;;;;;4.47;1.42;;;21.40;72.90;;;;;;5095090;28;20052;-74
2021/06/20 09:14:48;;;;;;;5.30;1.23;;;21.40;72.80;;;;;;5095286;28;20127;-75
2021/06/20 09:17:27;;;;;;;4.32;1.40;;;21.50;72.90;;;;;;5095332;28;20058;-73
2021/06/20 09:20:00;;;;;;;4.07;1.38;;;21.50;72.90;;;;;;5095677;28;20439;-74
2021/06/20 09:22:27;;;;;;;4.45;1.55;;;21.50;72.80;;;;;;5095499;28;20071;-74
2021/06/20 09:25:01;;;;;;;4.28;1.25;;;21.50;72.80;;;;;;5095153;28;20058;-72
2021/06/20 09:27:27;;;;;;;3.50;1.25;;;21.50;72.80;;;;;;5095792;28;20048;-75
2021/06/20 09:29:52;;;;;;;5.07;1.10;;;21.50;72.80;;;;;;5097961;28;20093;-74
2021/06/20 09:32:18;;;;;;;6.20;1.23;;;21.50;72.80;;;;;;5115432;28;20046;-74
2021/06/20 09:34:47;;;;;;;3.95;1.00;;;21.50;72.80;;;;;;5116010;28;20040;-73
2021/06/20 09:37:14;;;;;;;4.05;1.10;;;21.50;72.80;;;;;;5115593;28;20039;-74
2021/06/20 09:39:41;;;;;;;2.97;1.42;;;21.50;72.70;;;;;;5115648;28;20386;-75
2021/06/20 09:42:10;;;;;;;5.03;0.90;;;21.50;72.70;;;;;;5115548;28;20458;-76
2021/06/20 09:44:40;;;;;;;2.35;0.95;;;21.50;72.70;;;;;;5115622;28;20496;-75
2021/06/20 09:47:11;;;;;;;2.95;0.93;;;21.50;72.70;;;;;;5115789;28;20044;-75
2021/06/20 09:49:38;;;;;;;3.30;1.05;;;21.50;72.70;;;;;;5115459;28;20105;-73
2021/06/20 09:52:04;;;;;;;4.35;1.15;;;21.60;72.70;;;;;;5115804;28;20096;-74
2021/06/20 09:54:32;;;;;;;2.65;0.73;;;21.50;72.70;;;;;;5115136;28;20119;-73
2021/06/20 09:56:59;;;;;;;3.63;1.08;;;21.60;72.70;;;;;;5099164;28;20047;-73
2021/06/20 09:59:33;;;;;;;3.53;1.00;;;21.60;72.70;;;;;;5099866;28;20056;-75
2021/06/20 10:02:09;;;;;;;4.15;0.88;;;21.60;72.70;;;;;;5099179;28;20173;-76
2021/06/20 10:04:37;;;;;;;3.42;1.15;;;21.60;72.60;;;;;;5117351;28;20123;-74
2021/06/20 10:07:05;;;;;;;2.55;1.00;;;21.60;72.60;;;;;;5119231;28;20043;-75
2021/06/20 10:09:33;;;;;;;4.43;1.30;;;21.60;72.60;;;;;;5120133;28;20047;-74
2021/06/20 10:11:58;;;;;;;4.13;0.90;;;21.60;72.60;;;;;;5119370;28;20116;-76
2021/06/20 10:14:26;;;;;;;2.28;1.20;;;21.60;72.60;;;;;;5119481;28;20039;-75
2021/06/20 10:16:55;;;;;;;1.88;0.75;;;21.60;72.50;;;;;;5119551;28;20055;-75
2021/06/20 10:19:26;;;;;;;2.95;1.00;;;21.60;72.50;;;;;;5116411;28;20082;-74
2021/06/20 10:22:07;;;;;;;1.80;0.80;;;21.60;72.50;;;;;;5105853;28;20051;-75
2021/06/20 10:24:54;;;;;;;2.30;0.90;;;21.60;72.50;;;;;;5119148;28;20055;-74
2021/06/20 10:27:33;;;;;;;2.40;0.82;;;21.60;72.40;;;;;;5119395;28;20377;-75
2021/06/20 10:30:04;;;;;;;2.58;0.77;;;21.60;72.40;;;;;;5119070;28;20063;-74
2021/06/20 10:32:46;;;;;;;3.45;0.90;;;21.60;72.40;;;;;;5119089;28;20044;-73
2021/06/20 10:35:19;;;;;;;2.58;0.90;;;21.70;72.40;;;;;;5119079;28;20051;-75
2021/06/20 10:37:45;;;;;;;1.98;0.80;;;21.60;72.40;;;;;;5119105;28;20040;-75
2021/06/20 10:40:19;;;;;;;1.38;0.77;;;21.70;72.50;;;;;;5119279;28;20055;-74
2021/06/20 10:42:45;;;;;;;;;;;21.70;72.40;;;;;;5119034;28;20055;-74
2021/06/20 10:45:11;;;;;;;2.35;0.70;;;21.60;72.30;;;;;;5105424;28;20281;-74
2021/06/20 10:47:39;;;;;;;1.20;0.60;;;21.60;72.40;;;;;;5098657;28;20044;-74
2021/06/20 10:50:08;;;;;;;2.88;1.10;;;21.60;72.40;;;;;;5098334;28;20054;-75
2021/06/20 10:52:34;;;;;;;1.85;0.73;;;21.70;72.40;;;;;;5098145;28;20036;-75
2021/06/20 10:55:06;;;;;;;1.98;0.70;;;21.70;72.40;;;;;;5098732;28;20063;-74
2021/06/20 10:57:32;;;;;;;1.35;0.52;;;21.70;72.30;;;;;;5097884;28;20417;-75
2021/06/20 10:59:59;;;;;;;3.15;0.82;;;21.70;72.30;;;;;;5098965;28;20056;-75
2021/06/20 11:02:32;;;;;;;1.95;0.75;;;21.70;72.30;;;;;;5098006;28;20055;-73
2021/06/20 11:04:59;;;;;;;1.33;0.82;;;21.70;72.20;;;;;;5098147;28;20498;-77
2021/06/20 11:07:27;;;;;;;3.17;0.75;;;21.70;72.20;;;;;;5098266;28;20050;-75
2021/06/20 11:09:55;;;;;;;2.65;1.13;;;21.70;72.30;;;;;;5099487;28;20386;-76
2021/06/20 11:12:22;;;;;;;2.38;0.77;;;21.70;72.30;;;;;;5118378;28;20471;-75
2021/06/20 11:14:53;;;;;;;3.15;1.02;;;21.70;72.20;;;;;;5118883;28;20048;-74
2021/06/20 11:17:20;;;;;;;2.63;0.82;;;21.70;72.20;;;;;;5118296;28;20048;-74
2021/06/20 11:19:46;;;;;;;1.92;0.70;;;21.70;72.20;;;;;;5118278;28;20040;-75
2021/06/20 11:22:14;;;;;;;1.40;0.60;;;21.70;72.10;;;;;;5116913;28;20111;-75
2021/06/20 11:24:48;;;;;;;2.03;0.85;;;21.70;72.10;;;;;;5118147;28;20048;-74
2021/06/20 11:27:17;;;;;;;1.10;0.60;;;21.70;72.00;;;;;;5118262;28;20096;-76
2021/06/20 11:29:45;;;;;;;2.38;0.70;;;21.70;72.00;;;;;;5118165;28;20044;-74
2021/06/20 11:32:21;;;;;;;1.55;0.75;;;21.70;72.00;;;;;;5118211;28;20056;-75
2021/06/20 11:34:52;;;;;;;2.08;0.70;;;21.80;71.90;;;;;;5117844;28;20040;-75
2021/06/20 11:37:29;;;;;;;2.45;0.73;;;21.80;71.90;;;;;;5106473;28;20124;-75
2021/06/20 11:39:58;;;;;;;2.00;0.60;;;21.80;71.90;;;;;;5097466;28;20048;-74
2021/06/20 11:42:29;;;;;;;1.83;0.73;;;21.80;71.90;;;;;;5097453;28;20451;-75
2021/06/20 11:45:05;;;;;;;3.10;0.63;;;21.80;71.90;;;;;;5097558;28;20040;-74
2021/06/20 11:47:33;;;;;;;1.50;0.60;;;21.80;71.90;;;;;;5097229;28;20059;-75
2021/06/20 11:50:33;;;;;;;1.33;0.50;;;21.70;71.80;;;;;;5096202;28;20119;-75
2021/06/20 11:53:07;;;;;;;1.85;0.60;;;21.80;71.90;;;;;;5097386;28;20040;-75
2021/06/20 11:55:44;;;;;;;2.78;0.73;;;21.80;71.90;;;;;;5097128;28;20358;-76
2021/06/20 11:58:13;;;;;;;2.38;0.60;;;21.80;71.90;;;;;;5097415;28;20110;-74
2021/06/20 12:00:44;;;;;;;1.67;0.60;;;21.80;71.90;;;;;;5101319;28;20123;-74
2021/06/20 12:03:21;;;;;;;2.17;0.73;;;21.80;71.90;;;;;;5097296;28;20052;-74
2021/06/20 12:05:55;;;;;;;2.75;0.90;;;21.80;71.90;;;;;;5096939;28;20068;-75
2021/06/20 12:08:22;;;;;;;2.08;0.75;;;21.80;71.80;;;;;;5096701;28;20590;-74
2021/06/20 12:10:49;;;;;;;2.03;0.80;;;21.80;71.70;;;;;;5097455;28;20131;-74
2021/06/20 12:13:15;;;;;;;3.60;0.80;;;21.80;71.70;;;;;;5096872;28;20044;-75
2021/06/20 12:15:42;;;;;;;1.63;0.52;;;21.80;71.70;;;;;;5095847;28;20054;-75
2021/06/20 12:18:11;;;;;;;1.70;0.68;;;21.80;71.60;;;;;;5096851;28;20047;-75
2021/06/20 12:20:51;;;;;;;1.13;0.70;;;21.80;71.60;;;;;;5096442;28;20055;-75
2021/06/20 12:23:29;;;;;;;2.58;0.70;;;21.80;71.50;;;;;;5096664;28;20044;-74
2021/06/20 12:25:55;;;;;;;1.45;0.68;;;21.80;71.50;;;;;;5096579;28;20355;-74
2021/06/20 12:28:22;;;;;;;0.98;0.50;;;21.80;71.50;;;;;;5105438;28;20044;-75
2021/06/20 12:30:50;;;;;;;0.95;0.50;;;21.80;71.50;;;;;;5116725;28;20089;-74
2021/06/20 12:33:18;;;;;;;1.23;0.47;;;21.80;71.40;;;;;;5116553;28;20039;-74
2021/06/20 12:35:48;;;;;;;2.30;0.85;;;21.80;71.30;;;;;;5116169;28;20450;-76
2021/06/20 12:38:22;;;;;;;1.60;0.63;;;21.80;71.30;;;;;;5096360;28;20043;-77
2021/06/20 12:40:48;;;;;;;4.32;0.80;;;21.80;71.30;;;;;;5096087;28;20051;-74
2021/06/20 12:43:19;;;;;;;2.50;0.55;;;21.80;71.30;;;;;;5096618;28;20044;-75
2021/06/20 12:45:45;;;;;;;2.05;0.88;;;21.80;71.30;;;;;;5096440;28;20055;-75
2021/06/20 12:48:19;;;;;;;2.00;0.73;;;21.80;71.30;;;;;;5096678;28;20104;-74